Time;durP1;ratioP1;P1;durP2;ratioP2;P2;SDS_P1;SDS_P2;PMS_P1;PMS_P2;Temp;Humidity;BMP_temperature;BMP_pressure;BME280_temperature;BME280_humidity;BME280_pressure;Samples;Min_cycle;Max_cycle;Signal;HPM_P1;HPM_P2
2021/09/21 00:00:59;;;;;;;14.05;10.27;;;;;;;17.51;58.31;102299.03;5011001;28;119353;-94
2021/09/21 00:03:25;;;;;;;12.18;10.25;;;;;;;17.56;57.65;102308.75;4999834;28;123541;-95
2021/09/21 00:05:50;;;;;;;13.45;9.90;;;;;;;17.49;56.95;102301.47;4979331;28;120856;-94
2021/09/21 00:08:16;;;;;;;13.30;10.02;;;;;;;17.50;57.75;102301.00;4997789;28;120879;-94
2021/09/21 00:10:41;;;;;;;14.70;9.90;;;;;;;17.30;58.16;102272.16;4980329;28;122546;-94
2021/09/21 00:13:07;;;;;;;11.85;9.95;;;;;;;17.40;57.40;102290.38;4997971;28;119392;-94
2021/09/21 00:15:33;;;;;;;12.93;9.80;;;;;;;17.50;56.84;102308.56;5008613;28;121248;-94
2021/09/21 00:17:59;;;;;;;14.35;9.93;;;;;;;17.35;57.41;102272.34;4994605;28;121703;-94
2021/09/21 00:20:24;;;;;;;12.38;9.55;;;;;;;17.50;57.95;102283.59;5014855;28;120303;-94
2021/09/21 00:22:50;;;;;;;12.75;9.65;;;;;;;17.50;57.43;102286.38;5009516;28;122477;-95
2021/09/21 00:25:16;;;;;;;11.30;9.15;;;;;;;17.35;57.12;102260.47;4993322;28;119276;-94
2021/09/21 00:27:42;;;;;;;12.88;10.05;;;;;;;17.41;57.69;102276.03;5010774;27;121247;-94
2021/09/21 00:30:13;;;;;;;10.95;9.02;;;;;;;17.39;56.37;102272.94;5011365;27;123604;-94
2021/09/21 00:32:41;;;;;;;12.13;8.70;;;;;;;17.36;57.06;102264.78;4992117;28;119359;-95
2021/09/21 00:35:07;;;;;;;12.10;9.00;;;;;;;17.30;57.16;102252.75;4976033;28;122586;-94
2021/09/21 00:37:33;;;;;;;13.23;9.38;;;;;;;17.39;56.84;102272.94;4980484;28;122001;-93
2021/09/21 00:39:59;;;;;;;12.23;9.88;;;;;;;17.45;56.73;102276.66;4986700;28;119513;-93
2021/09/21 00:42:29;;;;;;;12.95;10.02;;;;;;;17.47;57.89;102267.88;4991879;28;121011;-95
2021/09/21 00:45:00;;;;;;;11.97;9.70;;;;;;;17.40;57.95;102257.06;5009703;28;119124;-94
2021/09/21 00:47:27;;;;;;;14.50;10.60;;;;;;;17.23;58.42;102225.28;4997649;28;122454;-95
2021/09/21 00:49:53;;;;;;;12.60;10.40;;;;;;;17.47;59.17;102248.44;5006881;28;122573;-94
2021/09/21 00:52:20;;;;;;;12.10;9.40;;;;;;;17.44;57.75;102236.28;5007409;28;120788;-94
2021/09/21 00:54:46;;;;;;;12.50;9.57;;;;;;;17.30;58.08;102200.81;4972050;28;121122;-95
2021/09/21 00:57:13;;;;;;;12.82;9.32;;;;;;;17.50;57.72;102228.88;4978779;28;122849;-94
2021/09/21 00:59:39;;;;;;;13.38;9.48;;;;;;;17.46;58.34;102222.72;4994759;28;118985;-92
2021/09/21 01:02:04;;;;;;;11.73;9.80;;;;;;;17.38;58.96;102201.28;4992241;28;121420;-94
2021/09/21 01:04:31;;;;;;;10.80;9.30;;;;;;;17.46;57.71;102214.38;4999800;27;122220;-95
2021/09/21 01:06:57;;;;;;;12.38;10.23;;;;;;;17.47;58.59;102235.34;4979973;28;121078;-93
2021/09/21 01:09:24;;;;;;;13.33;10.17;;;;;;;17.40;58.57;102223.78;4976925;28;123458;-94
2021/09/21 01:11:53;;;;;;;13.65;10.40;;;;;;;17.48;58.19;102233.34;4990506;28;119393;-94
2021/09/21 01:14:20;;;;;;;11.82;10.15;;;;;;;17.37;58.63;102211.63;4992576;28;120975;-95
2021/09/21 01:16:46;;;;;;;13.27;10.32;;;;;;;17.25;58.58;102193.09;4989484;28;123443;-93
2021/09/21 01:19:13;;;;;;;12.32;10.10;;;;;;;17.49;57.74;102221.00;5003778;28;119447;-93
2021/09/21 01:21:41;;;;;;;12.70;10.53;;;;;;;17.49;57.64;102221.00;5011225;27;121304;-95
2021/09/21 01:24:08;;;;;;;13.18;10.75;;;;;;;17.45;58.03;102206.53;4993374;28;122316;-94
2021/09/21 01:26:33;;;;;;;15.40;10.90;;;;;;;17.54;58.18;102225.97;4980788;28;120087;-95
2021/09/21 01:28:59;;;;;;;12.67;10.80;;;;;;;17.50;58.74;102223.31;4976866;28;121877;-95
2021/09/21 01:31:25;;;;;;;14.07;11.23;;;;;;;17.47;59.11;102217.94;4981435;28;119249;-92
2021/09/21 01:33:52;;;;;;;13.27;10.70;;;;;;;17.49;57.85;102221.00;4978104;28;121050;-94
2021/09/21 01:36:21;;;;;;;12.52;10.77;;;;;;;17.47;57.98;102224.25;4993511;28;122649;-92
2021/09/21 01:38:47;;;;;;;15.48;11.35;;;;;;;17.64;58.79;102262.81;4976865;28;119427;-94
2021/09/21 01:41:13;;;;;;;14.90;11.50;;;;;;;17.58;58.04;102257.09;5005847;28;121321;-94
2021/09/21 01:43:42;;;;;;;14.43;11.10;;;;;;;17.63;58.44;102264.81;4963009;28;122525;-94
2021/09/21 01:46:09;;;;;;;14.50;10.25;;;;;;;17.49;58.74;102240.44;4975957;28;119060;-93
2021/09/21 01:48:34;;;;;;;13.32;10.10;;;;;;;17.64;57.86;102266.34;5011995;28;121098;-94
2021/09/21 01:51:03;;;;;;;12.63;10.98;;;;;;;17.53;58.15;102260.50;5006872;28;120200;-93
2021/09/21 02:01:07;;;;;;;12.53;10.13;;;;;;;17.54;58.58;102264.81;4993799;28;121042;-94
2021/09/21 02:03:33;;;;;;;13.47;10.53;;;;;;;17.64;59.15;102279.47;5013536;27;120282;-94
2021/09/21 02:05:59;;;;;;;12.07;10.10;;;;;;;17.55;58.09;102263.59;5013240;28;118682;-94
2021/09/21 02:08:25;;;;;;;14.38;10.50;;;;;;;17.60;58.16;102265.75;5010654;27;121198;-93
2021/09/21 02:10:51;;;;;;;13.35;10.90;;;;;;;17.42;58.39;102235.19;4994008;28;118747;-94
2021/09/21 02:13:17;;;;;;;12.93;10.52;;;;;;;17.65;58.08;102265.13;4974241;28;121030;-95
2021/09/21 02:15:43;;;;;;;13.18;10.48;;;;;;;17.54;58.21;102248.16;5008901;28;122085;-93
2021/09/21 02:18:08;;;;;;;12.77;10.50;;;;;;;17.54;56.86;102239.06;4995630;28;119323;-95
2021/09/21 02:20:34;;;;;;;13.40;10.93;;;;;;;17.52;57.14;102231.22;4991548;28;121537;-93
2021/09/21 02:23:00;;;;;;;13.73;11.70;;;;;;;17.65;58.71;102244.94;5006426;28;121955;-94
2021/09/21 02:25:25;;;;;;;13.87;10.60;;;;;;;17.51;56.97;102221.34;5010160;27;120133;-92
2021/09/21 02:27:51;;;;;;;15.20;11.83;;;;;;;17.64;57.41;102244.16;5021376;28;121215;-95
2021/09/21 02:30:17;;;;;;;13.50;11.33;;;;;;;17.67;57.37;102261.88;5015278;28;122451;-95
2021/09/21 02:32:43;;;;;;;15.67;11.27;;;;;;;17.50;57.43;102234.41;5007006;27;121091;-93
2021/09/21 02:35:08;;;;;;;14.63;11.20;;;;;;;17.43;57.50;102223.63;4977817;28;122106;-94
2021/09/21 02:37:34;;;;;;;12.93;10.50;;;;;;;17.64;57.71;102246.94;5001479;27;119614;-95
2021/09/21 02:40:00;;;;;;;13.40;10.83;;;;;;;17.58;57.24;102228.59;5007919;28;120832;-91
2021/09/21 02:42:27;;;;;;;13.38;10.85;;;;;;;17.58;57.37;102237.69;5002601;28;123465;-94
2021/09/21 02:44:52;;;;;;;13.93;11.38;;;;;;;17.44;57.57;102211.31;5008628;27;120792;-94
2021/09/21 02:47:18;;;;;;;13.50;11.23;;;;;;;17.64;57.36;102235.84;5024481;27;119442;-95
2021/09/21 02:49:44;;;;;;;13.98;10.18;;;;;;;17.64;56.21;102233.06;4976868;28;121865;-93
2021/09/21 02:52:09;;;;;;;12.95;11.02;;;;;;;17.50;56.84;102217.78;5020329;27;118887;-94
2021/09/21 02:54:35;;;;;;;14.07;11.50;;;;;;;17.61;56.81;102236.75;5008291;28;122122;-94
2021/09/21 02:57:00;;;;;;;13.77;11.43;;;;;;;17.49;56.97;102210.69;4977022;28;120067;-93
2021/09/21 02:59:26;;;;;;;12.57;11.10;;;;;;;17.43;56.31;102198.66;5004129;27;121112;-94
2021/09/21 03:01:52;;;;;;;15.57;11.73;;;;;;;17.56;56.18;102220.72;5008797;27;121967;-94
2021/09/21 03:04:27;;;;;;;13.82;11.73;;;;;;;17.33;55.68;102191.59;5006625;28;118942;-94
2021/09/21 03:07:02;;;;;;;14.25;11.90;;;;;;;17.47;56.24;102212.38;5008269;27;121222;-95
2021/09/21 03:17:27;;;;;;;16.15;12.30;;;;;;;17.55;56.33;102229.50;5011477;27;119551;-96
2021/09/21 03:20:02;;;;;;;14.50;11.50;;;;;;;17.58;54.85;102234.91;5009977;28;120989;-95
2021/09/21 03:22:29;;;;;;;14.60;11.47;;;;;;;17.59;55.83;102230.91;5010418;27;120422;-94
2021/09/21 03:24:56;;;;;;;14.70;11.80;;;;;;;17.57;55.96;102219.50;5000081;28;118985;-94
2021/09/21 03:27:22;;;;;;;14.73;11.93;;;;;;;17.61;55.73;102227.66;4978806;27;121250;-95
2021/09/21 03:29:48;;;;;;;17.45;12.35;;;;;;;17.44;55.66;102202.22;4994674;27;123778;-95
2021/09/21 03:32:14;;;;;;;16.25;11.68;;;;;;;17.56;54.98;102217.19;5000235;28;119069;-93
2021/09/21 03:34:42;;;;;;;14.07;11.98;;;;;;;17.49;56.21;102205.13;5010857;28;121073;-91
2021/09/21 03:37:10;;;;;;;15.63;12.07;;;;;;;17.58;55.65;102223.81;5033340;27;119468;-94
2021/09/21 03:39:36;;;;;;;14.88;12.18;;;;;;;17.54;55.57;102208.56;4996980;28;122315;-93
2021/09/21 03:42:03;;;;;;;17.37;12.00;;;;;;;17.60;55.66;102213.03;4979727;28;122512;-94
2021/09/21 03:44:28;;;;;;;14.60;12.40;;;;;;;17.39;55.68;102180.63;4996201;28;119272;-93
2021/09/21 03:46:55;;;;;;;15.37;12.30;;;;;;;17.60;56.06;102204.69;4991154;28;121352;-94
2021/09/21 03:49:21;;;;;;;15.80;12.50;;;;;;;17.58;55.42;102212.72;4973415;28;122400;-94
2021/09/21 03:51:48;;;;;;;15.45;12.63;;;;;;;17.56;55.41;102212.41;5024275;27;121221;-92
2021/09/21 03:54:14;;;;;;;16.23;13.38;;;;;;;17.36;56.58;102176.03;5016308;27;121058;-94
2021/09/21 03:56:40;;;;;;;16.63;12.47;;;;;;;17.51;55.80;102196.38;4995145;28;122236;-94
2021/09/21 03:59:07;;;;;;;16.80;13.35;;;;;;;17.42;56.21;102188.03;4982742;28;118990;-94
2021/09/21 04:01:33;;;;;;;17.17;13.20;;;;;;;17.42;55.81;102193.59;4992779;28;122079;-94
2021/09/21 04:04:00;;;;;;;15.67;13.47;;;;;;;17.45;55.91;102195.44;5007095;27;118864;-95
2021/09/21 04:06:26;;;;;;;17.60;14.03;;;;;;;17.25;56.22;102167.38;4970277;28;122375;-94
2021/09/21 04:08:53;;;;;;;18.65;14.05;;;;;;;17.44;56.66;102196.66;4995214;28;123236;-93
2021/09/21 04:11:20;;;;;;;16.00;13.35;;;;;;;17.52;56.47;102203.47;4986371;28;118697;-94
2021/09/21 04:13:46;;;;;;;17.35;14.05;;;;;;;17.52;56.18;102197.91;4996758;27;122363;-94
2021/09/21 04:16:12;;;;;;;15.77;13.30;;;;;;;17.44;55.94;102191.13;4991465;28;119439;-95
2021/09/21 04:18:38;;;;;;;16.85;13.50;;;;;;;17.46;55.47;102208.06;5010392;28;120443;-94
2021/09/21 04:21:04;;;;;;;17.40;13.50;;;;;;;17.29;55.47;102195.75;4976748;27;121910;-94
2021/09/21 04:23:29;;;;;;;16.87;14.00;;;;;;;17.24;55.81;102193.56;5011121;27;119141;-95
2021/09/21 04:25:55;;;;;;;17.93;13.77;;;;;;;17.33;56.79;102199.91;4979298;28;121279;-93
2021/09/21 04:28:21;;;;;;;17.00;14.30;;;;;;;17.33;55.99;102205.44;5023896;27;119968;-95
2021/09/21 04:30:51;;;;;;;19.67;15.25;;;;;;;17.29;57.11;102201.28;4991221;28;120093;-95
2021/09/21 04:33:17;;;;;;;17.60;14.77;;;;;;;17.18;56.94;102185.84;5004211;27;121586;-95
2021/09/21 04:35:43;;;;;;;18.65;14.45;;;;;;;17.23;56.60;102203.13;5006915;28;119763;-93
2021/09/21 04:38:10;;;;;;;19.10;14.43;;;;;;;17.17;56.30;102209.28;5011570;27;119182;-95
2021/09/21 04:40:36;;;;;;;20.37;15.37;;;;;;;17.16;56.90;102207.72;4985850;28;122578;-94
2021/09/21 04:43:02;;;;;;;19.20;14.95;;;;;;;17.17;57.01;102206.50;4994349;28;121529;-94
2021/09/21 04:45:28;;;;;;;17.83;15.00;;;;;;;17.17;57.69;102200.94;5013775;27;121239;-94
2021/09/21 04:47:53;;;;;;;19.87;14.27;;;;;;;16.96;56.91;102174.09;4985674;28;122258;-95
2021/09/21 04:50:21;;;;;;;18.03;14.10;;;;;;;17.16;56.63;102204.97;5005286;27;119304;-95
2021/09/21 04:52:49;;;;;;;17.63;13.87;;;;;;;16.95;56.86;102161.47;5006674;28;121014;-95
2021/09/21 04:55:15;;;;;;;17.43;13.33;;;;;;;17.20;57.45;102188.16;4993469;28;122024;-94
2021/09/21 04:57:41;;;;;;;18.90;13.07;;;;;;;17.06;57.39;102169.38;5018469;27;119368;-94
2021/09/21 05:00:08;;;;;;;14.97;11.40;;;;;;;17.17;56.10;102178.00;5011292;27;121226;-96
2021/09/21 05:02:36;;;;;;;13.67;11.17;;;;;;;17.09;57.20;102160.13;4996404;28;123684;-95
2021/09/21 05:05:02;;;;;;;13.55;10.98;;;;;;;17.09;56.92;102149.81;5008388;28;120991;-96
2021/09/21 05:07:28;;;;;;;15.85;11.40;;;;;;;17.14;57.15;102135.31;5008048;28;123099;-95
2021/09/21 05:09:54;;;;;;;15.33;11.90;;;;;;;17.29;56.95;102168.78;5004091;27;118812;-95
2021/09/21 05:12:20;;;;;;;21.27;12.17;;;;;;;17.28;56.73;102161.69;4989996;28;120979;-96
2021/09/21 05:14:46;;;;;;;15.20;11.50;;;;;;;17.30;56.41;102175.09;5013618;27;122194;-95
2021/09/21 05:17:12;;;;;;;15.73;12.17;;;;;;;17.31;57.05;102182.19;4994495;28;118896;-96
2021/09/21 05:19:37;;;;;;;17.48;12.32;;;;;;;17.21;56.81;102169.53;4978403;28;122079;-93
2021/09/21 05:22:03;;;;;;;15.63;11.80;;;;;;;17.29;56.45;102184.66;5005164;27;122129;-96
2021/09/21 05:24:28;;;;;;;15.90;11.80;;;;;;;17.34;57.00;102197.91;4999053;27;119294;-95
2021/09/21 05:26:54;;;;;;;14.33;12.00;;;;;;;17.25;57.33;102173.69;4994831;28;122084;-95
2021/09/21 05:29:20;;;;;;;14.47;11.77;;;;;;;17.16;57.62;102166.13;4994777;27;118804;-96
2021/09/21 05:31:45;;;;;;;18.77;12.23;;;;;;;17.39;57.74;102195.28;4980193;28;121104;-96
2021/09/21 05:34:11;;;;;;;16.33;11.53;;;;;;;17.33;57.53;102190.81;4988927;27;122302;-93
2021/09/21 05:36:37;;;;;;;15.70;11.10;;;;;;;17.49;58.07;102198.81;5003921;27;119266;-96
2021/09/21 05:39:05;;;;;;;16.90;11.70;;;;;;;17.49;57.91;102196.03;4981115;28;121025;-95
2021/09/21 05:41:30;;;;;;;17.03;11.47;;;;;;;17.45;58.19;102187.88;4985834;27;121941;-96
2021/09/21 05:43:56;;;;;;;16.80;11.03;;;;;;;17.53;57.00;102199.47;4979304;28;119790;-95
2021/09/21 05:46:21;;;;;;;16.53;11.23;;;;;;;17.47;57.58;102181.88;5011561;27;121035;-96
2021/09/21 05:48:49;;;;;;;16.47;10.97;;;;;;;17.42;57.71;102176.94;4995329;28;118725;-95
2021/09/21 05:51:15;;;;;;;16.55;11.43;;;;;;;17.52;57.25;102191.59;5005600;28;121365;-94
2021/09/21 05:53:41;;;;;;;16.52;11.30;;;;;;;17.35;57.49;102155.84;5006165;27;123421;-96
2021/09/21 05:56:07;;;;;;;17.13;11.80;;;;;;;17.58;57.65;102184.97;4995128;27;119751;-95
2021/09/21 05:58:33;;;;;;;16.33;12.30;;;;;;;17.46;56.78;102167.22;5011464;27;121142;-96
2021/09/21 06:00:58;;;;;;;17.02;12.30;;;;;;;17.59;57.19;102191.28;5011570;27;121595;-95
2021/09/21 06:03:24;;;;;;;17.17;12.27;;;;;;;17.59;57.74;102205.94;4990797;28;119049;-95
2021/09/21 06:05:50;;;;;;;19.52;12.82;;;;;;;17.59;57.61;102191.28;5021091;27;122363;-95
2021/09/21 06:08:16;;;;;;;20.90;13.50;;;;;;;17.37;57.94;102161.69;5005183;27;122139;-96
2021/09/21 06:10:41;;;;;;;23.67;13.30;;;;;;;17.50;57.64;102178.16;4993034;28;121203;-95
2021/09/21 06:13:07;;;;;;;21.00;13.30;;;;;;;17.69;58.58;102206.72;5001108;27;123612;-96
2021/09/21 06:15:33;;;;;;;21.93;13.97;;;;;;;17.53;58.42;102188.38;5010129;27;118694;-96
2021/09/21 06:17:59;;;;;;;22.47;13.03;;;;;;;17.71;58.90;102209.78;4994321;28;122381;-95
2021/09/21 06:20:25;;;;;;;20.80;13.07;;;;;;;17.72;58.81;102205.78;4996074;28;122104;-94
2021/09/21 06:22:51;;;;;;;17.33;12.52;;;;;;;17.65;59.10;102190.19;4993729;28;120658;-93
2021/09/21 06:25:17;;;;;;;16.42;12.05;;;;;;;17.78;58.74;102207.50;4991990;27;122343;-96
2021/09/21 06:27:44;;;;;;;17.58;12.77;;;;;;;17.82;59.56;102198.25;4997708;28;122016;-95
2021/09/21 06:30:15;;;;;;;18.85;13.10;;;;;;;17.85;59.71;102208.41;4992401;28;120957;-95
2021/09/21 06:32:41;;;;;;;18.75;12.52;;;;;;;17.84;59.36;102195.78;5009911;27;123216;-96
2021/09/21 06:35:08;;;;;;;18.55;12.77;;;;;;;17.83;59.50;102194.22;4981198;28;119646;-95
2021/09/21 06:37:34;;;;;;;17.58;13.13;;;;;;;17.91;59.54;102199.00;4999060;27;122570;-95
2021/09/21 06:40:00;;;;;;;18.00;12.87;;;;;;;17.96;59.78;102197.59;5008521;28;123177;-96
2021/09/21 06:42:33;;;;;;;18.57;13.70;;;;;;;17.78;60.20;102173.44;5008831;28;120223;-95
2021/09/21 06:45:01;;;;;;;20.30;14.57;;;;;;;17.69;60.62;102163.09;5001627;27;121216;-95
2021/09/21 06:47:27;;;;;;;17.30;13.27;;;;;;;17.98;60.85;102192.34;5019713;27;119455;-93
2021/09/21 06:49:55;;;;;;;18.13;14.40;;;;;;;17.90;60.04;102185.56;4994399;28;118791;-95
2021/09/21 06:52:21;;;;;;;20.73;14.30;;;;;;;17.71;60.45;102155.06;5025603;27;122456;-95
2021/09/21 06:54:47;;;;;;;18.67;14.43;;;;;;;18.05;60.58;102197.59;5014805;28;120522;-95
2021/09/21 06:57:13;;;;;;;21.25;14.48;;;;;;;17.90;60.75;102180.03;5006371;28;119348;-94
2021/09/21 06:59:39;;;;;;;20.07;14.77;;;;;;;17.98;60.92;102184.81;4987590;28;122212;-95
2021/09/21 07:02:05;;;;;;;20.05;14.23;;;;;;;17.93;61.03;102179.09;4983621;28;118938;-95
2021/09/21 07:04:30;;;;;;;18.00;13.95;;;;;;;18.03;60.77;102186.19;5009347;27;120823;-92
2021/09/21 07:06:56;;;;;;;19.50;14.30;;;;;;;18.01;60.70;102189.44;5002701;28;122183;-96
2021/09/21 07:09:22;;;;;;;19.57;14.17;;;;;;;17.90;61.29;102180.03;4994316;28;120023;-96
2021/09/21 07:11:48;;;;;;;18.67;14.13;;;;;;;18.02;61.41;102184.66;4995829;28;121010;-95
2021/09/21 07:14:14;;;;;;;19.17;13.43;;;;;;;17.83;61.29;102156.13;4977044;28;119514;-95
2021/09/21 07:16:41;;;;;;;19.58;13.95;;;;;;;17.68;61.57;102128.25;4995252;28;121192;-96
2021/09/21 07:19:38;;;;;;;17.45;13.93;;;;;;;18.06;61.81;102176.91;4993715;28;122238;-95
2021/09/21 07:22:04;;;;;;;16.55;13.10;;;;;;;18.08;61.97;102182.78;4991898;28;122328;-96
2021/09/21 07:24:30;;;;;;;17.48;13.38;;;;;;;18.04;61.64;102173.84;4991553;28;121352;-95
2021/09/21 07:26:55;;;;;;;17.63;13.48;;;;;;;17.85;61.28;102148.13;4997879;28;122243;-92
2021/09/21 07:29:30;;;;;;;16.85;13.13;;;;;;;18.21;61.54;102190.91;4959002;28;120028;-92
2021/09/21 07:31:56;;;;;;;17.23;13.00;;;;;;;17.84;61.29;102126.38;4976271;28;122382;-91
2021/09/21 07:34:22;;;;;;;15.18;12.38;;;;;;;18.15;61.46;102178.88;4958997;28;122095;-92
2021/09/21 07:36:51;;;;;;;16.83;13.27;;;;;;;18.26;61.73;102188.28;4990476;28;121129;-95
2021/09/21 07:39:17;;;;;;;18.05;13.70;;;;;;;18.22;61.82;102184.13;5002395;28;122324;-93
2021/09/21 07:41:43;;;;;;;19.02;14.20;;;;;;;18.24;61.49;102168.53;5007345;28;120614;-95
2021/09/21 07:44:09;;;;;;;19.87;14.67;;;;;;;18.30;62.41;102172.22;4978159;28;120970;-92
2021/09/21 07:46:35;;;;;;;17.42;13.82;;;;;;;18.38;61.98;102178.97;4960495;28;122492;-91
2021/09/21 07:49:00;;;;;;;17.67;14.40;;;;;;;18.40;62.15;102176.50;4971378;28;119698;-91
2021/09/21 07:51:26;;;;;;;19.73;15.10;;;;;;;18.42;62.18;102167.69;4985807;28;121298;-91
2021/09/21 07:53:51;;;;;;;18.20;14.10;;;;;;;18.41;62.27;102160.59;4971267;28;123857;-91
2021/09/21 07:56:17;;;;;;;20.43;14.90;;;;;;;18.48;62.45;102162.28;5001064;28;119771;-93
2021/09/21 07:58:43;;;;;;;19.93;14.50;;;;;;;18.48;62.20;102149.16;5002181;28;122390;-92
2021/09/21 08:01:08;;;;;;;20.27;15.30;;;;;;;18.61;61.92;102162.81;4997826;28;119761;-94
2021/09/21 08:03:34;;;;;;;17.95;15.27;;;;;;;18.65;61.89;102180.88;4990957;28;121157;-95
2021/09/21 08:06:02;;;;;;;20.93;16.17;;;;;;;18.62;61.71;102175.47;4977339;28;119647;-95
2021/09/21 08:08:28;;;;;;;21.57;15.60;;;;;;;18.54;62.28;102185.41;4981986;28;119343;-96
2021/09/21 08:10:53;;;;;;;23.40;16.80;;;;;;;18.48;62.67;102173.41;4989422;28;122258;-93
2021/09/21 08:13:19;;;;;;;23.70;16.87;;;;;;;18.32;62.96;102146.75;4992843;28;121838;-95
2021/09/21 08:15:45;;;;;;;26.08;17.73;;;;;;;18.40;63.52;102164.59;4994814;28;119764;-96
2021/09/21 08:18:11;;;;;;;21.73;16.50;;;;;;;18.35;63.35;102146.56;4994168;28;119041;-95
2021/09/21 08:20:37;;;;;;;20.88;17.13;;;;;;;18.36;63.49;102145.34;4995595;28;119188;-94
2021/09/21 08:23:03;;;;;;;22.70;17.75;;;;;;;18.56;63.66;102182.94;5013996;28;122207;-95
2021/09/21 08:25:29;;;;;;;22.17;17.30;;;;;;;18.35;63.66;102143.78;5006406;28;123004;-96
2021/09/21 08:27:55;;;;;;;24.08;18.05;;;;;;;18.37;63.76;102149.66;5005313;28;119617;-95
2021/09/21 08:30:22;;;;;;;23.80;18.23;;;;;;;18.59;64.08;102176.44;5000111;28;121449;-94
2021/09/21 08:32:48;;;;;;;21.97;17.93;;;;;;;18.62;64.01;102169.91;4977460;28;122417;-95
2021/09/21 08:35:14;;;;;;;22.77;17.97;;;;;;;18.64;63.88;102162.69;4989318;28;118775;-96
2021/09/21 08:37:40;;;;;;;23.97;18.80;;;;;;;18.60;64.31;102144.63;4987809;28;121751;-96
2021/09/21 08:40:06;;;;;;;23.13;17.73;;;;;;;18.65;64.50;102155.09;4984636;28;119578;-96
2021/09/21 08:42:32;;;;;;;25.73;19.27;;;;;;;18.74;64.43;102162.66;4979036;28;121192;-94
2021/09/21 08:44:58;;;;;;;25.87;18.30;;;;;;;18.64;64.13;102134.13;4980764;28;121840;-95
2021/09/21 08:47:25;;;;;;;22.23;17.83;;;;;;;18.68;63.81;102148.59;5006289;27;118886;-95
2021/09/21 08:49:51;;;;;;;25.92;18.63;;;;;;;18.84;64.11;102162.13;4979686;28;120534;-96
2021/09/21 08:52:17;;;;;;;33.00;18.90;;;;;;;18.76;64.00;102138.69;5015079;27;121953;-96
2021/09/21 08:54:42;;;;;;;33.03;19.23;;;;;;;18.84;64.48;102137.09;4990299;27;119181;-96
2021/09/21 08:57:11;;;;;;;27.33;18.57;;;;;;;19.17;64.53;102169.66;4977654;28;121412;-96
2021/09/21 08:59:38;;;;;;;27.70;18.57;;;;;;;19.09;64.24;102152.53;5012204;27;122589;-96
2021/09/21 09:02:09;;;;;;;23.83;18.50;;;;;;;19.09;64.46;102141.41;4988489;27;121217;-96
2021/09/21 09:04:37;;;;;;;27.60;19.27;;;;;;;19.37;64.60;102171.78;4976133;27;123917;-96
2021/09/21 09:07:03;;;;;;;23.92;17.50;;;;;;;19.44;64.58;102169.44;5008172;27;119875;-94
2021/09/21 09:09:37;;;;;;;21.77;17.25;;;;;;;19.41;64.61;102152.94;4992082;27;120768;-96
2021/09/21 09:12:05;;;;;;;25.17;17.93;;;;;;;19.40;64.72;102135.47;5007087;27;122769;-95
2021/09/21 09:14:37;;;;;;;24.27;17.60;;;;;;;19.72;64.35;102177.56;4976861;27;119655;-95
2021/09/21 09:17:06;;;;;;;26.00;18.37;;;;;;;19.61;64.46;102159.41;4990448;27;121407;-96
2021/09/21 09:19:43;;;;;;;23.77;17.20;;;;;;;19.86;64.07;102179.59;4987752;27;122476;-93
2021/09/21 09:22:10;;;;;;;19.33;16.27;;;;;;;19.91;63.46;102188.06;4991298;27;119576;-95
2021/09/21 09:24:45;;;;;;;22.83;17.05;;;;;;;19.86;63.65;102162.88;4975701;27;122298;-96
2021/09/21 09:27:11;;;;;;;20.90;16.97;;;;;;;19.94;63.93;102172.41;5010644;27;119767;-96
2021/09/21 09:29:51;;;;;;;23.17;17.30;;;;;;;19.78;63.79;102145.78;4993297;27;121737;-96
2021/09/21 09:32:17;;;;;;;19.50;16.00;;;;;;;20.12;63.51;102188.94;5009737;27;123208;-95
2021/09/21 09:34:42;;;;;;;19.00;15.80;;;;;;;20.06;63.48;102168.53;4982130;27;119685;-95
2021/09/21 09:37:08;;;;;;;19.35;15.40;;;;;;;20.02;63.55;102159.63;4995247;27;121341;-96
2021/09/21 09:39:34;;;;;;;20.30;15.10;;;;;;;20.34;63.46;102191.28;4991089;27;121692;-95
2021/09/21 09:42:01;;;;;;;20.63;15.95;;;;;;;20.39;63.47;102181.50;5004046;27;119977;-96
2021/09/21 09:44:29;;;;;;;20.90;16.03;;;;;;;20.39;63.76;102170.34;4974507;28;122954;-96
2021/09/21 09:47:03;;;;;;;22.35;15.70;;;;;;;20.53;63.46;102177.94;4986660;27;119687;-96
2021/09/21 09:49:35;;;;;;;21.00;14.88;;;;;;;20.46;63.83;102153.25;4989465;27;121671;-96
2021/09/21 09:52:09;;;;;;;20.10;14.13;;;;;;;20.48;63.35;102145.16;4999854;27;122471;-96
2021/09/21 09:54:37;;;;;;;17.73;13.43;;;;;;;20.56;63.04;102148.31;4978828;27;120860;-96
2021/09/21 09:57:04;;;;;;;18.52;13.63;;;;;;;20.62;63.28;102140.81;5014188;27;121436;-96
2021/09/21 09:59:30;;;;;;;20.98;12.73;;;;;;;20.66;62.61;102142.16;4974963;27;122865;-96
2021/09/21 10:01:57;;;;;;;16.70;12.07;;;;;;;20.97;62.92;102180.59;4985784;28;119319;-96
2021/09/21 10:04:23;;;;;;;16.88;11.35;;;;;;;20.98;63.16;102145.84;4976294;28;121791;-96
2021/09/21 10:06:49;;;;;;;16.70;11.00;;;;;;;21.02;62.94;102145.66;5012830;27;122967;-96
2021/09/21 10:09:15;;;;;;;15.27;8.57;;;;;;;20.89;62.32;102108.97;5007072;27;121713;-96
2021/09/21 10:11:45;;;;;;;17.30;8.80;;;;;;;21.17;62.55;102129.59;5015099;27;122266;-95
2021/09/21 10:14:12;;;;;;;15.30;6.72;;;;;;;20.98;62.04;102094.88;4980984;27;121715;-94
2021/09/21 10:17:02;;;;;;;14.57;5.93;;;;;;;21.40;61.74;102153.75;4953486;22;122362;-72
2021/09/21 10:19:29;;;;;;;16.55;5.22;;;;;;;21.41;61.21;102160.88;4958144;28;121378;-72
2021/09/21 10:21:55;;;;;;;11.25;4.65;;;;;;;21.44;61.98;102156.31;4962672;28;121117;-72
2021/09/21 10:24:40;;;;;;;9.87;3.73;;;;;;;21.45;61.08;102153.03;4961318;28;121644;-72
2021/09/21 10:27:16;;;;;;;9.35;3.70;;;;;;;21.46;61.33;102156.59;4960820;28;120663;-72
2021/09/21 10:29:42;;;;;;;9.68;2.55;;;;;;;21.47;59.79;102160.16;4986003;28;119905;-71
2021/09/21 10:32:10;;;;;;;7.80;2.50;;;;;;;21.45;60.66;102153.03;4967587;28;120885;-72
2021/09/21 10:34:44;;;;;;;8.88;2.50;;;;;;;21.49;60.38;102152.81;4961347;28;120854;-72
2021/09/21 10:37:10;;;;;;;9.98;2.00;;;;;;;21.53;59.77;102158.97;4944782;28;121395;-72
2021/09/21 10:39:37;;;;;;;7.25;2.00;;;;;;;21.56;59.68;102152.41;4973682;28;122619;-72
2021/09/21 10:42:06;;;;;;;6.53;1.90;;;;;;;21.55;58.46;102158.47;4940181;28;125243;-72
2021/09/21 10:44:33;;;;;;;8.07;1.77;;;;;;;21.58;58.32;102158.25;4960133;28;122256;-72
2021/09/21 10:47:03;;;;;;;7.35;1.90;;;;;;;21.58;58.99;102160.28;4959127;28;121423;-72
2021/09/21 10:49:41;;;;;;;8.05;1.85;;;;;;;21.64;59.40;102158.31;4961925;28;120989;-72
2021/09/21 10:52:13;;;;;;;7.78;1.80;;;;;;;21.65;59.48;102148.69;4955629;28;120584;-72
2021/09/21 10:54:41;;;;;;;7.22;1.60;;;;;;;;;;4960448;28;121626;-71
2021/09/21 10:57:11;;;;;;;8.93;1.65;;;;;;;21.72;58.81;102145.44;4955960;28;123533;-69
2021/09/21 10:59:38;;;;;;;10.35;1.90;;;;;;;;;;4958089;28;120581;-72
2021/09/21 11:02:10;;;;;;;10.00;1.67;;;;;;;21.74;58.50;102145.69;4953582;28;121237;-72
2021/09/21 11:04:43;;;;;;;11.20;1.70;;;;;;;21.72;58.97;102146.19;4958833;28;120526;-72
2021/09/21 11:07:13;;;;;;;8.93;1.52;;;;;;;21.69;58.80;102141.59;4935087;28;122533;-72
2021/09/21 11:09:40;;;;;;;8.02;1.70;;;;;;;21.68;58.89;102139.31;4957727;28;120505;-72
2021/09/21 11:12:11;;;;;;;9.35;1.80;;;;;;;21.65;58.97;102137.50;4965039;28;121667;-72
2021/09/21 11:14:39;;;;;;;8.95;1.92;;;;;;;21.65;59.55;102138.28;4961387;28;121106;-72
2021/09/21 11:17:06;;;;;;;7.30;1.70;;;;;;;21.62;59.17;102136.47;4953090;28;120881;-72
2021/09/21 11:19:33;;;;;;;8.00;1.70;;;;;;;21.57;58.96;102122.47;4955862;28;120734;-71